Time;durP1;ratioP1;P1;durP2;ratioP2;P2;SDS_P1;SDS_P2;PMS_P1;PMS_P2;Temp;Humidity;BMP_temperature;BMP_pressure;BME280_temperature;BME280_humidity;BME280_pressure;Samples;Min_cycle;Max_cycle;Signal;HPM_P1;HPM_P2
2023/12/18 00:00:47;;;;;;;;;;;2.50;99.90;;;;;;5010979;28;19921;-71
2023/12/18 00:03:16;;;;;;;;;;;2.40;99.90;;;;;;5011060;28;19975;-71
2023/12/18 00:05:44;;;;;;;;;;;2.40;99.90;;;;;;5011232;28;19921;-71
2023/12/18 00:08:12;;;;;;;;;;;2.40;99.90;;;;;;5010464;28;20008;-72
2023/12/18 00:10:41;;;;;;;;;;;2.30;99.90;;;;;;5011115;28;19925;-71
2023/12/18 00:13:09;;;;;;;;;;;2.10;99.90;;;;;;5011050;28;19922;-71
2023/12/18 00:15:36;;;;;;;;;;;2.00;99.90;;;;;;5011017;28;19925;-71
2023/12/18 00:18:05;;;;;;;;;;;2.00;99.90;;;;;;5010271;28;19921;-72
2023/12/18 00:20:33;;;;;;;;;;;1.90;99.90;;;;;;5011150;28;20335;-71
2023/12/18 00:23:01;;;;;;;;;;;1.70;99.90;;;;;;5010840;28;20409;-71
2023/12/18 00:25:29;;;;;;;;;;;1.60;99.90;;;;;;5010914;28;19921;-71
2023/12/18 00:27:58;;;;;;;;;;;1.60;99.90;;;;;;5010181;28;19921;-71
2023/12/18 00:30:26;;;;;;;;;;;1.60;99.90;;;;;;5010998;28;19968;-72
2023/12/18 00:32:54;;;;;;;;;;;1.50;99.90;;;;;;5010765;28;19921;-70
2023/12/18 00:35:22;;;;;;;;;;;1.50;99.90;;;;;;5010657;28;20427;-71
2023/12/18 00:37:49;;;;;;;;;;;1.40;99.90;;;;;;5010129;28;19928;-72
2023/12/18 00:40:17;;;;;;;;;;;1.40;99.90;;;;;;5018232;28;19997;-70
2023/12/18 00:42:45;;;;;;;;;;;1.30;99.90;;;;;;5010809;28;19928;-71
2023/12/18 00:45:14;;;;;;;;;;;1.20;99.90;;;;;;5010557;28;19928;-71
2023/12/18 00:47:42;;;;;;;;;;;1.20;99.90;;;;;;5012949;28;20404;-70
2023/12/18 00:50:10;;;;;;;;;;;1.20;99.90;;;;;;5010752;28;19921;-71
2023/12/18 00:52:39;;;;;;;;;;;1.20;99.90;;;;;;5010982;28;20395;-71
2023/12/18 00:55:07;;;;;;;;;;;1.20;99.90;;;;;;5010575;28;19926;-71
2023/12/18 00:57:35;;;;;;;;;;;1.20;99.90;;;;;;5010195;28;19925;-71
2023/12/18 01:00:04;;;;;;;;;;;1.30;99.90;;;;;;5013697;28;20333;-71
2023/12/18 01:02:33;;;;;;;;;;;1.20;99.90;;;;;;5014544;28;20017;-70
2023/12/18 01:05:01;;;;;;;;;;;1.30;99.90;;;;;;5014110;28;20376;-72
2023/12/18 01:07:29;;;;;;;;;;;1.30;99.90;;;;;;5013870;28;19975;-70
2023/12/18 01:09:58;;;;;;;;;;;1.40;99.90;;;;;;5021945;28;19933;-71
2023/12/18 01:12:26;;;;;;;;;;;1.30;99.90;;;;;;5014687;28;19921;-71
2023/12/18 01:14:54;;;;;;;;;;;1.30;99.90;;;;;;5013595;28;20372;-71
2023/12/18 01:17:22;;;;;;;;;;;1.40;99.90;;;;;;5013561;28;20399;-71
2023/12/18 01:20:04;;;;;;;;;;;1.60;99.90;;;;;;5013996;28;19926;-70
2023/12/18 01:22:31;;;;;;;;;;;1.50;99.90;;;;;;5014065;28;19922;-70
2023/12/18 01:24:59;;;;;;;;;;;1.50;99.90;;;;;;5013556;28;19921;-71
2023/12/18 01:27:27;;;;;;;;;;;1.50;99.90;;;;;;5013503;28;19921;-71
2023/12/18 01:29:55;;;;;;;;;;;1.50;99.90;;;;;;5013812;28;20285;-72
2023/12/18 01:32:23;;;;;;;;;;;1.50;99.90;;;;;;5013976;28;19922;-71
2023/12/18 01:34:50;;;;;;;;;;;1.50;99.90;;;;;;5013330;28;19925;-73
2023/12/18 01:37:19;;;;;;;;;;;1.50;99.90;;;;;;5005451;28;20210;-71
2023/12/18 01:39:47;;;;;;;;;;;1.40;99.90;;;;;;5014023;28;20399;-71
2023/12/18 01:42:15;;;;;;;;;;;1.40;99.90;;;;;;5013802;28;19921;-72
2023/12/18 01:44:43;;;;;;;;;;;1.50;99.90;;;;;;5013293;28;19925;-69
2023/12/18 01:47:11;;;;;;;;;;;1.60;99.90;;;;;;5016206;28;19936;-72
2023/12/18 01:49:39;;;;;;;;;;;1.50;99.90;;;;;;5013678;28;19956;-71
2023/12/18 01:52:07;;;;;;;;;;;1.50;99.90;;;;;;5013363;28;19968;-75
2023/12/18 01:54:36;;;;;;;;;;;1.40;99.90;;;;;;5021388;28;20406;-73
2023/12/18 01:57:05;;;;;;;;;;;1.50;99.90;;;;;;5013163;28;19921;-72
2023/12/18 01:59:33;;;;;;;;;;;1.40;99.90;;;;;;5013597;28;19935;-71
2023/12/18 02:02:01;;;;;;;;;;;1.40;99.90;;;;;;5013072;28;20388;-71
2023/12/18 02:04:29;;;;;;;;;;;1.30;99.90;;;;;;5013018;28;19921;-72
2023/12/18 02:06:58;;;;;;;;;;;1.20;99.90;;;;;;5012728;28;19968;-70
2023/12/18 02:09:26;;;;;;;;;;;1.30;99.90;;;;;;5012695;28;19927;-72
2023/12/18 02:11:55;;;;;;;;;;;1.30;99.90;;;;;;5013292;28;19928;-73
2023/12/18 02:14:23;;;;;;;;;;;1.50;99.90;;;;;;5012599;28;19980;-72
2023/12/18 02:16:50;;;;;;;;;;;1.50;99.90;;;;;;5012654;28;19975;-75
2023/12/18 02:19:23;;;;;;;;;;;1.50;99.90;;;;;;5012915;28;19925;-72
2023/12/18 02:21:51;;;;;;;;;;;1.50;99.90;;;;;;5013207;28;19967;-74
2023/12/18 02:24:20;;;;;;;;;;;1.70;99.90;;;;;;5012333;28;19929;-71
2023/12/18 02:26:48;;;;;;;;;;;1.70;99.90;;;;;;5012489;28;19921;-73
2023/12/18 02:29:16;;;;;;;;;;;1.70;99.90;;;;;;5013167;28;20016;-72
2023/12/18 02:31:44;;;;;;;;;;;1.70;99.90;;;;;;5012872;28;19928;-72
2023/12/18 02:34:11;;;;;;;;;;;1.80;99.90;;;;;;5014050;28;19928;-72
2023/12/18 02:36:40;;;;;;;;;;;1.80;99.90;;;;;;5018157;28;20011;-71
2023/12/18 02:39:07;;;;;;;;;;;1.80;99.90;;;;;;5012400;28;20380;-71
2023/12/18 02:41:36;;;;;;;;;;;1.70;99.90;;;;;;5012554;28;20359;-71
2023/12/18 02:44:04;;;;;;;;;;;1.70;99.90;;;;;;5012070;28;20012;-71
2023/12/18 02:46:32;;;;;;;;;;;1.60;99.90;;;;;;5013138;28;19957;-73
2023/12/18 02:49:00;;;;;;;;;;;1.50;99.90;;;;;;5015225;28;20152;-71
2023/12/18 02:51:28;;;;;;;;;;;1.50;99.90;;;;;;5012783;28;19921;-71
2023/12/18 02:53:55;;;;;;;;;;;1.50;99.90;;;;;;5012066;28;19922;-73
2023/12/18 02:56:25;;;;;;;;;;;1.50;99.90;;;;;;5012160;28;19921;-71
2023/12/18 02:58:55;;;;;;;;;;;1.60;99.90;;;;;;5011990;28;19925;-72
2023/12/18 03:01:22;;;;;;;;;;;1.60;99.90;;;;;;5011963;28;19929;-72
2023/12/18 03:03:50;;;;;;;;;;;1.50;99.90;;;;;;5012088;28;19921;-72
2023/12/18 03:06:18;;;;;;;;;;;1.40;99.90;;;;;;5011822;28;20343;-73
2023/12/18 03:08:46;;;;;;;;;;;1.40;99.90;;;;;;5011546;28;19926;-73
2023/12/18 03:11:13;;;;;;;;;;;1.40;99.90;;;;;;5011885;28;19933;-74
2023/12/18 03:13:41;;;;;;;;;;;1.50;99.90;;;;;;5011906;28;19922;-72
2023/12/18 03:16:10;;;;;;;;;;;1.50;99.90;;;;;;5012079;28;19932;-72
2023/12/18 03:18:38;;;;;;;;;;;1.40;99.90;;;;;;5011758;28;19922;-72
2023/12/18 03:21:09;;;;;;;;;;;1.50;99.90;;;;;;5010830;28;19922;-72
2023/12/18 03:23:37;;;;;;;;;;;1.50;99.90;;;;;;5011837;28;20364;-71
2023/12/18 03:26:05;;;;;;;;;;;1.50;99.90;;;;;;5011577;28;19968;-72
2023/12/18 03:28:32;;;;;;;;;;;1.50;99.90;;;;;;5011408;28;20380;-72
2023/12/18 03:31:00;;;;;;;;;;;1.50;99.90;;;;;;5011856;28;19940;-73
2023/12/18 03:33:29;;;;;;;;;;;1.40;99.90;;;;;;5011488;28;20215;-71
2023/12/18 03:35:57;;;;;;;;;;;1.50;99.90;;;;;;5011647;28;19921;-73
2023/12/18 03:38:24;;;;;;;;;;;1.50;99.90;;;;;;5010908;28;19929;-72
2023/12/18 03:40:52;;;;;;;;;;;1.40;99.90;;;;;;5011513;28;19923;-72
2023/12/18 03:43:20;;;;;;;;;;;1.40;99.90;;;;;;5011478;28;19921;-73
2023/12/18 03:45:47;;;;;;;;;;;1.40;99.90;;;;;;5011175;28;19925;-73
2023/12/18 03:48:15;;;;;;;;;;;1.40;99.90;;;;;;5015641;28;19988;-73
2023/12/18 03:50:45;;;;;;;;;;;1.30;99.90;;;;;;5011568;28;19975;-73
2023/12/18 03:53:13;;;;;;;;;;;1.30;99.90;;;;;;5011235;28;19922;-73
2023/12/18 03:55:40;;;;;;;;;;;1.40;99.90;;;;;;5011200;28;19929;-71
2023/12/18 03:58:08;;;;;;;;;;;1.40;99.90;;;;;;5010729;28;19928;-73
2023/12/18 04:00:36;;;;;;;;;;;1.40;99.90;;;;;;5011227;28;19921;-73
2023/12/18 04:03:05;;;;;;;;;;;1.50;99.90;;;;;;5011413;28;19921;-73
2023/12/18 04:05:33;;;;;;;;;;;1.60;99.90;;;;;;5011169;28;19944;-73
2023/12/18 04:08:02;;;;;;;;;;;1.60;99.90;;;;;;5010513;28;19979;-73
2023/12/18 04:10:30;;;;;;;;;;;1.60;99.90;;;;;;5011205;28;19921;-72
2023/12/18 04:12:58;;;;;;;;;;;1.70;99.90;;;;;;5011709;28;19925;-73
2023/12/18 04:15:26;;;;;;;;;;;1.60;99.90;;;;;;5010576;28;19948;-73
2023/12/18 04:17:55;;;;;;;;;;;1.50;99.90;;;;;;5010702;28;19925;-73
2023/12/18 04:20:23;;;;;;;;;;;1.50;99.90;;;;;;5011169;28;19921;-74
2023/12/18 04:22:51;;;;;;;;;;;1.60;99.90;;;;;;5011213;28;20328;-72
2023/12/18 04:25:21;;;;;;;;;;;1.60;99.90;;;;;;5010777;28;20024;-73
2023/12/18 04:27:48;;;;;;;;;;;1.60;99.90;;;;;;4992835;28;19936;-72
2023/12/18 04:30:16;;;;;;;;;;;1.60;99.90;;;;;;5010770;28;20407;-73
2023/12/18 04:32:44;;;;;;;;;;;1.60;99.90;;;;;;5012695;28;19941;-73
2023/12/18 04:35:12;;;;;;;;;;;1.60;99.90;;;;;;5014319;28;20444;-73
2023/12/18 04:37:40;;;;;;;;;;;1.50;99.90;;;;;;5014529;28;19937;-74
2023/12/18 04:40:09;;;;;;;;;;;1.50;99.90;;;;;;5014687;28;19929;-73
2023/12/18 04:42:38;;;;;;;;;;;1.40;99.90;;;;;;5014790;28;19925;-73
2023/12/18 04:45:06;;;;;;;;;;;1.50;99.90;;;;;;5014566;28;20347;-73
2023/12/18 04:47:34;;;;;;;;;;;1.60;99.90;;;;;;5019971;28;20240;-73
2023/12/18 04:50:02;;;;;;;;;;;1.70;99.90;;;;;;5014855;28;19976;-73
2023/12/18 04:52:29;;;;;;;;;;;1.60;99.90;;;;;;4997873;28;20335;-74
2023/12/18 04:54:57;;;;;;;;;;;1.60;99.90;;;;;;5014040;28;19971;-72
2023/12/18 04:57:25;;;;;;;;;;;1.50;99.90;;;;;;5021818;28;20339;-73
2023/12/18 04:59:54;;;;;;;;;;;1.40;99.90;;;;;;5014591;28;19921;-74
2023/12/18 05:02:22;;;;;;;;;;;1.30;99.90;;;;;;5014136;28;19921;-71
2023/12/18 05:04:50;;;;;;;;;;;1.30;99.90;;;;;;5014260;28;19921;-72
2023/12/18 05:07:18;;;;;;;;;;;1.30;99.90;;;;;;5013989;28;19932;-71
2023/12/18 05:09:45;;;;;;;;;;;1.40;99.90;;;;;;5014365;28;19975;-74
2023/12/18 05:12:16;;;;;;;;;;;1.40;99.90;;;;;;5014190;28;19921;-73
2023/12/18 05:14:43;;;;;;;;;;;1.50;99.90;;;;;;5014008;28;20121;-72
2023/12/18 05:17:12;;;;;;;;;;;1.50;99.90;;;;;;4996479;28;20352;-72
2023/12/18 05:19:40;;;;;;;;;;;1.50;99.90;;;;;;5014336;28;20411;-74
2023/12/18 05:22:08;;;;;;;;;;;1.50;99.90;;;;;;5014078;28;19937;-73
2023/12/18 05:24:36;;;;;;;;;;;1.50;99.90;;;;;;5013631;28;19965;-72
2023/12/18 05:27:04;;;;;;;;;;;1.40;99.90;;;;;;5013670;28;20438;-72
2023/12/18 05:29:32;;;;;;;;;;;1.40;99.90;;;;;;5013758;28;20411;-72
2023/12/18 05:32:00;;;;;;;;;;;1.40;99.90;;;;;;5013914;28;19971;-72
2023/12/18 05:34:29;;;;;;;;;;;1.40;99.90;;;;;;5013247;28;19921;-72
2023/12/18 05:36:58;;;;;;;;;;;1.40;99.90;;;;;;5013542;28;20012;-72
2023/12/18 05:39:26;;;;;;;;;;;1.40;99.90;;;;;;5013690;28;19931;-71
2023/12/18 05:41:54;;;;;;;;;;;1.40;99.90;;;;;;5013699;28;20327;-71
2023/12/18 05:44:22;;;;;;;;;;;1.40;99.90;;;;;;5012439;28;19963;-72
2023/12/18 05:46:49;;;;;;;;;;;1.20;99.90;;;;;;5015753;28;19921;-73
2023/12/18 05:49:17;;;;;;;;;;;1.20;99.90;;;;;;5016934;28;19926;-71
2023/12/18 05:51:46;;;;;;;;;;;1.30;99.90;;;;;;5013698;28;20008;-72
2023/12/18 05:54:14;;;;;;;;;;;1.30;99.90;;;;;;5013675;28;19928;-71
2023/12/18 05:56:42;;;;;;;;;;;1.30;99.90;;;;;;5012776;28;20296;-72
2023/12/18 05:59:10;;;;;;;;;;;1.40;99.90;;;;;;5013492;28;19925;-74
2023/12/18 06:01:37;;;;;;;;;;;1.40;99.90;;;;;;5013062;28;19930;-72
2023/12/18 06:04:05;;;;;;;;;;;1.40;99.90;;;;;;5013369;28;19927;-73
2023/12/18 06:06:33;;;;;;;;;;;1.50;99.90;;;;;;5021179;28;19925;-73
2023/12/18 06:09:03;;;;;;;;;;;1.50;99.90;;;;;;5011924;28;19933;-73
2023/12/18 06:11:30;;;;;;;;;;;1.60;99.90;;;;;;5011752;28;19929;-75
2023/12/18 06:13:58;;;;;;;;;;;1.60;99.90;;;;;;5011730;28;19929;-72
2023/12/18 06:16:26;;;;;;;;;;;1.60;99.90;;;;;;5011411;28;19926;-72
2023/12/18 06:18:54;;;;;;;;;;;1.50;99.90;;;;;;5011498;28;20435;-71
2023/12/18 06:21:22;;;;;;;;;;;1.30;99.90;;;;;;5011768;28;20004;-73
2023/12/18 06:23:50;;;;;;;;;;;1.30;99.90;;;;;;5004372;28;20483;-75
2023/12/18 06:26:19;;;;;;;;;;;1.30;99.90;;;;;;5002239;28;19925;-74
2023/12/18 06:28:47;;;;;;;;;;;1.30;99.90;;;;;;5001120;28;20324;-76
2023/12/18 06:31:14;;;;;;;;;;;1.40;99.90;;;;;;5003848;28;19925;-73
2023/12/18 06:33:42;;;;;;;;;;;1.50;99.90;;;;;;5003133;28;19929;-72
2023/12/18 06:36:14;;;;;;;;;;;1.40;99.90;;;;;;4981312;28;19937;-74
2023/12/18 06:38:42;;;;;;;;;;;1.40;99.90;;;;;;4982476;28;20416;-71
2023/12/18 06:41:10;;;;;;;;;;;1.40;99.90;;;;;;4981389;28;19963;-77
2023/12/18 06:43:39;;;;;;;;;;;1.30;99.90;;;;;;4981637;28;20348;-73
2023/12/18 06:46:07;;;;;;;;;;;1.30;99.90;;;;;;4982380;28;20000;-76
2023/12/18 06:48:35;;;;;;;;;;;1.30;99.90;;;;;;4982120;28;20297;-73
2023/12/18 06:51:03;;;;;;;;;;;1.30;99.90;;;;;;4982516;28;19926;-76
2023/12/18 06:53:31;;;;;;;;;;;1.20;99.90;;;;;;4982225;28;19930;-74
2023/12/18 06:55:59;;;;;;;;;;;1.20;99.90;;;;;;4981238;28;19926;-72
2023/12/18 06:58:26;;;;;;;;;;;1.20;99.90;;;;;;4981039;28;19937;-74
2023/12/18 07:00:56;;;;;;;;;;;1.20;99.90;;;;;;4981777;28;19930;-73
2023/12/18 07:03:24;;;;;;;;;;;1.20;99.90;;;;;;4981393;28;19936;-74
2023/12/18 07:05:52;;;;;;;;;;;1.10;99.90;;;;;;4982264;28;20411;-72
2023/12/18 07:08:21;;;;;;;;;;;1.10;99.90;;;;;;4979870;28;19965;-74
2023/12/18 07:10:49;;;;;;;;;;;1.10;99.90;;;;;;4981763;28;20653;-73
2023/12/18 07:13:17;;;;;;;;;;;1.00;99.90;;;;;;4981945;28;19929;-73
2023/12/18 07:15:45;;;;;;;;;;;1.10;99.90;;;;;;4982094;28;19953;-72
2023/12/18 07:18:14;;;;;;;;;;;1.10;99.90;;;;;;4979217;28;19933;-71
2023/12/18 07:20:43;;;;;;;;;;;1.00;99.90;;;;;;4992713;28;20453;-70
2023/12/18 07:23:11;;;;;;;;;;;1.00;99.90;;;;;;4997774;28;19922;-71
2023/12/18 07:25:39;;;;;;;;;;;1.00;99.90;;;;;;4994723;28;19922;-69
2023/12/18 07:28:09;;;;;;;;;;;1.00;99.90;;;;;;4995158;28;20463;-71
2023/12/18 07:30:37;;;;;;;;;;;1.10;99.90;;;;;;4996724;28;19921;-71
2023/12/18 07:33:07;;;;;;;;;;;1.10;99.90;;;;;;4991273;28;20613;-72
2023/12/18 07:35:36;;;;;;;;;;;1.20;99.90;;;;;;5000074;28;19925;-72
2023/12/18 07:38:04;;;;;;;;;;;1.20;99.90;;;;;;5010654;28;19921;-73
2023/12/18 07:40:32;;;;;;;;;;;1.10;99.90;;;;;;5011128;28;19987;-71
2023/12/18 07:43:00;;;;;;;;;;;1.10;99.90;;;;;;5011618;28;19925;-71
2023/12/18 07:45:27;;;;;;;;;;;1.10;99.90;;;;;;5011211;28;19952;-71
2023/12/18 07:47:55;;;;;;;;;;;1.10;99.90;;;;;;5011027;28;19925;-70
2023/12/18 07:50:23;;;;;;;;;;;1.00;99.90;;;;;;5011360;28;19922;-71
2023/12/18 07:52:52;;;;;;;;;;;1.10;99.90;;;;;;5011299;28;20344;-71
2023/12/18 07:55:20;;;;;;;;;;;1.10;99.90;;;;;;5011108;28;19921;-73
2023/12/18 07:57:47;;;;;;;;;;;1.20;99.90;;;;;;5010634;28;20168;-70
2023/12/18 08:00:16;;;;;;;;;;;1.20;99.90;;;;;;5011261;28;19922;-70
2023/12/18 08:02:43;;;;;;;;;;;1.10;99.90;;;;;;5011094;28;19921;-70
2023/12/18 08:05:12;;;;;;;;;;;1.00;99.90;;;;;;5011284;28;19921;-71
2023/12/18 08:07:40;;;;;;;;;;;1.00;99.90;;;;;;5018015;28;19927;-72
2023/12/18 08:10:09;;;;;;;;;;;1.00;99.90;;;;;;5011410;28;19929;-70
2023/12/18 08:12:38;;;;;;;;;;;1.00;99.90;;;;;;5011033;28;19925;-71
2023/12/18 08:15:07;;;;;;;;;;;0.90;99.90;;;;;;5014332;28;19931;-70
2023/12/18 08:17:37;;;;;;;;;;;0.90;99.90;;;;;;5010391;28;19921;-71
2023/12/18 08:20:06;;;;;;;;;;;0.90;99.90;;;;;;5011244;28;19964;-72
2023/12/18 08:22:34;;;;;;;;;;;1.00;99.90;;;;;;5010814;28;19928;-71
2023/12/18 08:25:02;;;;;;;;;;;1.10;99.90;;;;;;5010955;28;19921;-71
2023/12/18 08:27:33;;;;;;;;;;;1.10;99.90;;;;;;5010411;28;20365;-70
2023/12/18 08:30:03;;;;;;;;;;;1.20;99.90;;;;;;5003876;28;19932;-71
2023/12/18 08:32:31;;;;;;;;;;;1.20;99.90;;;;;;5010799;28;19921;-70
2023/12/18 08:35:00;;;;;;;;;;;1.20;99.90;;;;;;5010802;28;19921;-70
2023/12/18 08:37:28;;;;;;;;;;;1.20;99.90;;;;;;5010532;28;19929;-72
2023/12/18 08:39:56;;;;;;;;;;;1.20;99.90;;;;;;5010714;28;19921;-70
2023/12/18 08:42:24;;;;;;;;;;;1.10;99.90;;;;;;5010724;28;20012;-71
2023/12/18 08:44:53;;;;;;;;;;;1.10;99.90;;;;;;5010397;28;19921;-70
2023/12/18 08:47:24;;;;;;;;;;;1.10;99.90;;;;;;5010493;28;19987;-71
2023/12/18 08:49:52;;;;;;;;;;;1.10;99.90;;;;;;5010821;28;19921;-71
2023/12/18 08:52:19;;;;;;;;;;;1.10;99.90;;;;;;5010313;28;19926;-71
2023/12/18 08:54:47;;;;;;;;;;;1.20;99.90;;;;;;5010587;28;19921;-72
2023/12/18 08:57:15;;;;;;;;;;;1.10;99.90;;;;;;5010371;28;19927;-71
2023/12/18 08:59:42;;;;;;;;;;;1.20;99.90;;;;;;5010755;28;19921;-71
2023/12/18 09:02:12;;;;;;;;;;;1.10;99.90;;;;;;5010496;28;19929;-70
2023/12/18 09:04:39;;;;;;;;;;;1.20;99.90;;;;;;5010593;28;19926;-71
2023/12/18 09:07:07;;;;;;;;;;;1.20;99.90;;;;;;5010161;28;19999;-70
2023/12/18 09:09:39;;;;;;;;;;;1.20;99.90;;;;;;5010531;28;20389;-68
2023/12/18 09:12:07;;;;;;;;;;;1.20;99.90;;;;;;5010693;28;19921;-69
2023/12/18 09:14:36;;;;;;;;;;;1.20;99.90;;;;;;5010383;28;20376;-72
2023/12/18 09:17:04;;;;;;;;;;;1.20;99.90;;;;;;5009980;28;19921;-70
2023/12/18 09:19:34;;;;;;;;;;;1.10;99.90;;;;;;5011478;28;19925;-70
2023/12/18 09:22:02;;;;;;;;;;;1.20;99.90;;;;;;5014507;28;19921;-70
2023/12/18 09:24:32;;;;;;;;;;;1.20;99.90;;;;;;5014270;28;20400;-69
2023/12/18 09:27:01;;;;;;;;;;;1.20;99.90;;;;;;5012872;28;19921;-70
2023/12/18 09:29:28;;;;;;;;;;;1.10;99.90;;;;;;5014025;28;20381;-70
2023/12/18 09:31:56;;;;;;;;;;;1.20;99.90;;;;;;5013730;28;19927;-70
2023/12/18 09:34:24;;;;;;;;;;;1.30;99.90;;;;;;5013825;28;20016;-68
2023/12/18 09:36:53;;;;;;;;;;;1.40;99.90;;;;;;5013443;28;19964;-70
2023/12/18 09:39:21;;;;;;;;;;;1.40;99.90;;;;;;5013812;28;19922;-70
2023/12/18 09:41:49;;;;;;;;;;;1.50;99.90;;;;;;5013463;28;19928;-70
2023/12/18 09:44:17;;;;;;;;;;;1.50;99.90;;;;;;5013401;28;19921;-70
2023/12/18 09:46:44;;;;;;;;;;;1.50;99.90;;;;;;5012952;28;20447;-70
2023/12/18 09:49:12;;;;;;;;;;;1.40;99.90;;;;;;5013500;28;19925;-71
2023/12/18 09:51:41;;;;;;;;;;;1.50;99.90;;;;;;5013453;28;20419;-70
2023/12/18 09:54:10;;;;;;;;;;;1.60;99.90;;;;;;5013547;28;19921;-70
2023/12/18 09:56:39;;;;;;;;;;;1.50;99.90;;;;;;5013427;28;20304;-70
2023/12/18 09:59:06;;;;;;;;;;;1.40;99.90;;;;;;5005916;28;20393;-70
2023/12/18 10:01:34;;;;;;;;;;;1.40;99.90;;;;;;5013519;28;20283;-70
2023/12/18 10:04:02;;;;;;;;;;;1.50;99.90;;;;;;5013023;28;19922;-70
2023/12/18 10:06:30;;;;;;;;;;;1.50;99.90;;;;;;5013333;28;19925;-70
2023/12/18 10:09:00;;;;;;;;;;;1.60;99.90;;;;;;5012574;28;19921;-70
2023/12/18 10:11:29;;;;;;;;;;;1.70;99.90;;;;;;5012655;28;19928;-70
2023/12/18 10:13:58;;;;;;;;;;;1.60;99.90;;;;;;5012860;28;19930;-73
2023/12/18 10:16:26;;;;;;;;;;;1.70;99.90;;;;;;5013200;28;20304;-70
2023/12/18 10:18:54;;;;;;;;;;;1.80;99.90;;;;;;5012413;28;19921;-71
2023/12/18 10:21:23;;;;;;;;;;;1.60;99.90;;;;;;5013044;28;19953;-70
2023/12/18 10:23:51;;;;;;;;;;;1.60;99.90;;;;;;5012344;28;19995;-70
2023/12/18 10:26:19;;;;;;;;;;;1.60;99.90;;;;;;5013010;28;19980;-70
2023/12/18 10:28:51;;;;;;;;;;;1.80;99.90;;;;;;5012181;28;19968;-69
2023/12/18 10:31:19;;;;;;;;;;;1.80;99.90;;;;;;5012796;28;19925;-71
2023/12/18 10:33:47;;;;;;;;;;;1.80;99.90;;;;;;5012614;28;19922;-69
2023/12/18 10:36:16;;;;;;;;;;;1.70;99.90;;;;;;5012570;28;20386;-69
2023/12/18 10:38:47;;;;;;;;;;;1.80;99.90;;;;;;5012003;28;20432;-68
2023/12/18 10:41:18;;;;;;;;;;;1.90;99.90;;;;;;5012523;28;19925;-70
2023/12/18 10:43:47;;;;;;;;;;;2.00;99.90;;;;;;5011882;28;19932;-70
2023/12/18 10:46:16;;;;;;;;;;;1.80;99.90;;;;;;5012954;28;19921;-70
2023/12/18 10:48:44;;;;;;;;;;;1.80;99.90;;;;;;5011823;28;19968;-71
2023/12/18 10:51:12;;;;;;;;;;;1.90;99.90;;;;;;5012184;28;19976;-71
2023/12/18 10:53:41;;;;;;;;;;;1.90;99.90;;;;;;5020700;28;20299;-70
2023/12/18 10:56:09;;;;;;;;;;;1.90;99.90;;;;;;5004232;28;20226;-70
2023/12/18 10:58:38;;;;;;;;;;;1.80;99.90;;;;;;5011904;28;19921;-71
2023/12/18 11:01:07;;;;;;;;;;;1.80;99.90;;;;;;5012125;28;19922;-72
2023/12/18 11:03:36;;;;;;;;;;;1.80;99.90;;;;;;5012042;28;20373;-70
2023/12/18 11:06:06;;;;;;;;;;;1.90;99.90;;;;;;5011999;28;19928;-70
2023/12/18 11:08:33;;;;;;;;;;;1.90;99.90;;;;;;5011671;28;19929;-71
2023/12/18 11:11:02;;;;;;;;;;;1.90;99.90;;;;;;5011868;28;20343;-71
2023/12/18 11:13:36;;;;;;;;;;;1.90;99.90;;;;;;5011864;28;19921;-72
2023/12/18 11:16:08;;;;;;;;;;;1.90;99.90;;;;;;5011443;28;19925;-69
2023/12/18 11:18:45;;;;;;;;;;;1.90;99.90;;;;;;5011740;28;19925;-70
2023/12/18 11:21:12;;;;;;;;;;;1.80;99.90;;;;;;5012127;28;19979;-71
2023/12/18 11:23:40;;;;;;;;;;;2.00;99.90;;;;;;5011770;28;20003;-71
2023/12/18 11:26:09;;;;;;;;;;;2.00;99.90;;;;;;5011594;28;19925;-70
2023/12/18 11:28:37;;;;;;;;;;;2.00;99.90;;;;;;5011334;28;19921;-71
2023/12/18 11:31:06;;;;;;;;;;;2.00;99.90;;;;;;5011750;28;19975;-71
2023/12/18 11:33:34;;;;;;;;;;;2.00;99.90;;;;;;5011755;28;19972;-71
2023/12/18 11:36:14;;;;;;;;;;;2.00;99.90;;;;;;5011422;28;19929;-71
2023/12/18 11:38:42;;;;;;;;;;;1.90;99.90;;;;;;5011424;28;20475;-71
2023/12/18 11:41:30;;;;;;;;;;;1.80;99.90;;;;;;5011219;28;19921;-71
2023/12/18 11:44:07;;;;;;;;;;;1.80;99.90;;;;;;5010634;28;19921;-71
2023/12/18 11:46:34;;;;;;;;;;;1.80;99.90;;;;;;5011652;28;19932;-71
2023/12/18 11:49:02;;;;;;;;;;;1.90;99.90;;;;;;5011437;28;19925;-72
2023/12/18 11:51:32;;;;;;;;;;;1.90;99.90;;;;;;5011404;28;19921;-71
2023/12/18 11:54:00;;;;;;;;;;;1.80;99.90;;;;;;5011115;28;19927;-71
2023/12/18 11:56:28;;;;;;;;;;;1.90;99.90;;;;;;5011421;28;19963;-70
2023/12/18 11:58:56;;;;;;;;;;;1.90;99.90;;;;;;5010676;28;19921;-70
2023/12/18 12:01:26;;;;;;;;;;;1.90;99.90;;;;;;5011372;28;19921;-71
2023/12/18 12:03:54;;;;;;;;;;;1.90;99.90;;;;;;5010670;28;20419;-70
2023/12/18 12:06:23;;;;;;;;;;;2.10;99.90;;;;;;5011371;28;19921;-71
2023/12/18 12:08:52;;;;;;;;;;;2.20;99.90;;;;;;5010930;28;20351;-74
2023/12/18 12:11:20;;;;;;;;;;;2.20;99.90;;;;;;5011167;28;19921;-70
2023/12/18 12:13:53;;;;;;;;;;;2.10;99.90;;;;;;5011352;28;19921;-70
2023/12/18 12:16:21;;;;;;;;;;;2.00;99.90;;;;;;5011150;28;20399;-71
2023/12/18 12:18:51;;;;;;;;;;;2.00;99.90;;;;;;5010430;28;19926;-69
2023/12/18 12:21:18;;;;;;;;;;;2.00;99.90;;;;;;5011291;28;19932;-70
2023/12/18 12:23:47;;;;;;;;;;;2.00;99.90;;;;;;5011076;28;19922;-71
2023/12/18 12:26:18;;;;;;;;;;;1.90;99.90;;;;;;5010872;28;19925;-70
2023/12/18 12:28:47;;;;;;;;;;;1.80;99.90;;;;;;5011103;28;19928;-70
2023/12/18 12:31:16;;;;;;;;;;;1.80;99.90;;;;;;5011040;28;19925;-70
2023/12/18 12:33:45;;;;;;;;;;;1.80;99.90;;;;;;5011138;28;19976;-70
2023/12/18 12:36:16;;;;;;;;;;;1.70;99.90;;;;;;5010704;28;20028;-71
2023/12/18 12:38:44;;;;;;;;;;;1.70;99.90;;;;;;5010632;28;19975;-71
2023/12/18 12:41:12;;;;;;;;;;;1.70;99.90;;;;;;5010738;28;19921;-70
2023/12/18 12:43:41;;;;;;;;;;;1.70;99.90;;;;;;5010853;28;20285;-71
2023/12/18 12:46:09;;;;;;;;;;;1.70;99.90;;;;;;5010395;28;20392;-71
2023/12/18 12:48:44;;;;;;;;;;;1.70;99.90;;;;;;5010544;28;19925;-71
2023/12/18 12:51:12;;;;;;;;;;;1.70;99.90;;;;;;5010573;28;19922;-71
2023/12/18 12:53:40;;;;;;;;;;;1.80;99.90;;;;;;5012471;28;20398;-71
2023/12/18 12:56:07;;;;;;;;;;;1.80;99.90;;;;;;5014060;28;19971;-70
2023/12/18 12:58:36;;;;;;;;;;;1.80;99.90;;;;;;5014126;28;20407;-70
2023/12/18 13:01:06;;;;;;;;;;;1.90;99.90;;;;;;5014434;28;19921;-71
2023/12/18 13:03:35;;;;;;;;;;;2.00;99.90;;;;;;5014796;28;19932;-70
2023/12/18 13:06:04;;;;;;;;;;;1.90;99.90;;;;;;5014265;28;20400;-70
2023/12/18 13:08:33;;;;;;;;;;;1.80;99.90;;;;;;5013979;28;19928;-71
2023/12/18 13:11:04;;;;;;;;;;;1.80;99.90;;;;;;5014309;28;19924;-72
2023/12/18 13:13:32;;;;;;;;;;;1.80;99.90;;;;;;5014200;28;20000;-71
2023/12/18 13:16:00;;;;;;;;;;;1.80;99.90;;;;;;5014044;28;19921;-72
2023/12/18 13:18:29;;;;;;;;;;;2.00;99.90;;;;;;5013814;28;19928;-70
2023/12/18 13:20:57;;;;;;;;;;;2.00;99.90;;;;;;5014151;28;20017;-72
2023/12/18 13:23:25;;;;;;;;;;;2.00;99.90;;;;;;5014085;28;19979;-70
2023/12/18 13:25:53;;;;;;;;;;;2.00;99.90;;;;;;5014264;28;20016;-71
2023/12/18 13:28:21;;;;;;;;;;;1.90;99.90;;;;;;5013134;28;19922;-70
2023/12/18 13:30:49;;;;;;;;;;;1.90;99.90;;;;;;5014038;28;19928;-75
2023/12/18 13:33:18;;;;;;;;;;;1.90;99.90;;;;;;5016272;28;19963;-70
2023/12/18 13:35:47;;;;;;;;;;;1.80;99.90;;;;;;5018681;28;19926;-71
2023/12/18 13:38:15;;;;;;;;;;;1.80;99.90;;;;;;5013206;28;20008;-70
2023/12/18 13:40:43;;;;;;;;;;;1.80;99.90;;;;;;5014011;28;19972;-71
2023/12/18 13:43:10;;;;;;;;;;;1.80;99.90;;;;;;5013176;28;19929;-71
2023/12/18 13:45:38;;;;;;;;;;;1.80;99.90;;;;;;5013480;28;19929;-71
2023/12/18 13:48:08;;;;;;;;;;;1.80;99.90;;;;;;5012913;28;20023;-73
2023/12/18 13:50:36;;;;;;;;;;;1.80;99.90;;;;;;5013781;28;19921;-70
2023/12/18 13:53:05;;;;;;;;;;;1.80;99.90;;;;;;5013457;28;19921;-71
2023/12/18 13:55:33;;;;;;;;;;;1.90;99.90;;;;;;5013574;28;19991;-71
2023/12/18 13:58:01;;;;;;;;;;;1.90;99.90;;;;;;5012681;28;20388;-73
2023/12/18 14:00:28;;;;;;;;;;;1.90;99.90;;;;;;5013583;28;19928;-72
2023/12/18 14:02:56;;;;;;;;;;;2.00;99.90;;;;;;5013564;28;20381;-71
2023/12/18 14:05:25;;;;;;;;;;;2.10;99.90;;;;;;5012127;28;19921;-71
2023/12/18 14:07:53;;;;;;;;;;;2.00;99.90;;;;;;5012723;28;19921;-70
2023/12/18 14:10:22;;;;;;;;;;;2.10;99.90;;;;;;5013467;28;20300;-70
2023/12/18 14:12:50;;;;;;;;;;;2.10;99.90;;;;;;5013099;28;19921;-71
2023/12/18 14:15:18;;;;;;;;;;;2.10;99.90;;;;;;5012479;28;19922;-71
2023/12/18 14:17:45;;;;;;;;;;;2.00;99.90;;;;;;5012826;28;20020;-70
2023/12/18 14:20:13;;;;;;;;;;;2.00;99.90;;;;;;5012970;28;20458;-71
2023/12/18 14:22:41;;;;;;;;;;;2.00;99.90;;;;;;5013190;28;20281;-70
2023/12/18 14:25:09;;;;;;;;;;;2.00;99.90;;;;;;5012616;28;19932;-68
2023/12/18 14:27:38;;;;;;;;;;;2.10;99.90;;;;;;5012181;28;19926;-71
2023/12/18 14:30:07;;;;;;;;;;;2.00;99.90;;;;;;5012701;28;20278;-69
2023/12/18 14:32:35;;;;;;;;;;;2.00;99.90;;;;;;5012945;28;20434;-70
2023/12/18 14:35:03;;;;;;;;;;;2.00;99.90;;;;;;5012291;28;19948;-71
2023/12/18 14:37:31;;;;;;;;;;;2.00;99.90;;;;;;5012406;28;19922;-70